Terminal Aerodrome Forecast
Issued by NWS Portland, ME

Home | Current Version | Previous Version | Text Only | Print | Product List | Glossary On
Versions: 1 2 3 4 5 6 7 8 9 10 11 12 13 14 15 16 17 18 19
904
FTUS41 KGYX 050520
TAFCON
TAF
KCON 050520Z 0506/0606 35006KT 6SM -RA OVC012
     FM051500 04010G20KT P6SM OVC025
     FM060000 35010KT P6SM BKN015 OVC025=

USA.gov is the U.S. government's official web portal to all federal, state and local government web resources and services.